createdAt,value
2023-04-23T00:03:29.240Z,52.43
2023-04-23T00:08:52.959Z,52.56
2023-04-23T00:14:14.410Z,52.64
2023-04-23T00:19:35.893Z,52.83
2023-04-23T00:24:57.058Z,53.15
2023-04-23T00:30:19.063Z,53.21
2023-04-23T00:35:39.759Z,53.09
2023-04-23T00:41:00.477Z,53.64
2023-04-23T00:46:21.980Z,53.35
2023-04-23T00:51:43.064Z,53.55
2023-04-23T00:57:03.895Z,54.02
2023-04-23T01:02:28.181Z,54.11
2023-04-23T01:07:49.553Z,53.85
2023-04-23T01:13:13.049Z,54.12
2023-04-23T01:18:34.479Z,54.15
2023-04-23T01:23:56.042Z,54.25
2023-04-23T01:29:18.322Z,54.65
2023-04-23T01:34:41.304Z,54.55
2023-04-23T01:40:02.305Z,54.55
2023-04-23T01:45:23.810Z,54.51
2023-04-23T01:50:45.160Z,54.92
2023-04-23T01:56:06.685Z,54.84
2023-04-23T02:01:44.951Z,55.28
2023-04-23T02:07:06.118Z,55.07
2023-04-23T02:12:26.893Z,55.50
2023-04-23T02:17:51.238Z,55.41
2023-04-23T02:23:12.512Z,55.50
2023-04-23T02:28:33.556Z,55.43
2023-04-23T02:33:54.249Z,55.59
2023-04-23T02:39:15.944Z,55.39
2023-04-23T02:44:36.755Z,55.86
2023-04-23T02:49:58.278Z,55.83
2023-04-23T02:55:19.322Z,55.80
2023-04-23T03:00:40.075Z,55.99
2023-04-23T03:06:02.080Z,55.96
2023-04-23T03:11:22.921Z,55.99
2023-04-23T03:16:44.334Z,55.96
2023-04-23T03:22:06.043Z,56.10
2023-04-23T03:27:27.206Z,55.88
2023-04-23T03:32:50.375Z,56.11
2023-04-23T03:38:11.172Z,56.13
2023-04-23T03:43:32.532Z,55.96
2023-04-23T03:48:59.547Z,56.29
2023-04-23T03:54:23.438Z,56.64
2023-04-23T04:00:19.469Z,57.12
2023-04-23T04:05:41.688Z,56.59
2023-04-23T04:11:02.395Z,57.63
2023-04-23T04:16:23.221Z,58.15
2023-04-23T04:21:43.917Z,58.32
2023-04-23T04:27:06.013Z,58.60
2023-04-23T04:32:27.136Z,58.73
2023-04-23T04:37:48.062Z,58.98
2023-04-23T04:43:10.247Z,59.47
2023-04-23T04:48:31.409Z,59.31
2023-04-23T04:53:53.144Z,59.50
2023-04-23T04:59:13.996Z,59.22
2023-04-23T05:04:34.746Z,59.39
2023-04-23T05:09:55.604Z,59.65
2023-04-23T05:15:16.709Z,59.63
2023-04-23T05:20:38.561Z,59.56
2023-04-23T05:25:59.606Z,60.39
2023-04-23T05:31:20.487Z,59.53
2023-04-23T05:36:41.360Z,59.09
2023-04-23T05:42:03.165Z,59.50
2023-04-23T05:47:24.142Z,59.57
2023-04-23T05:52:44.926Z,59.44
2023-04-23T05:58:06.232Z,59.44
2023-04-23T06:03:27.655Z,59.75
2023-04-23T06:08:51.179Z,59.70
2023-04-23T06:29:19.731Z,59.00
2023-04-23T06:35:01.643Z,59.24
2023-04-23T06:40:23.364Z,59.31
2023-04-23T06:45:44.089Z,59.21
2023-04-23T06:51:06.111Z,59.62
2023-04-23T07:34:16.363Z,60.11
2023-04-23T07:39:37.080Z,60.00
2023-04-23T07:44:57.952Z,60.00
2023-04-23T07:50:19.174Z,59.87
2023-04-23T07:55:39.880Z,59.47
2023-04-23T08:01:02.636Z,59.54
2023-04-23T08:06:24.053Z,59.01
2023-04-23T08:11:45.064Z,59.13
2023-04-23T08:17:05.838Z,58.31
2023-04-23T08:22:26.354Z,58.35
2023-04-23T08:27:47.642Z,58.53
2023-04-23T08:33:08.383Z,58.74
2023-04-23T08:38:29.362Z,58.90
2023-04-23T08:43:59.451Z,58.44
2023-04-23T08:49:20.486Z,59.02
2023-04-23T08:54:45.943Z,58.45
2023-04-23T09:00:11.720Z,57.96
2023-04-23T09:05:32.706Z,58.09
2023-04-23T09:10:56.179Z,58.26
2023-04-23T09:16:17.064Z,57.72
2023-04-23T09:21:40.104Z,57.10
2023-04-23T09:27:01.046Z,56.73
2023-04-23T09:32:32.384Z,56.67
2023-04-23T09:37:53.383Z,56.37
2023-04-23T09:43:14.264Z,56.44
2023-04-23T09:48:43.109Z,56.54
2023-04-23T10:00:26.073Z,56.90
2023-04-23T10:06:00.469Z,56.79
2023-04-23T10:11:25.414Z,56.54
2023-04-23T10:16:49.344Z,56.78
2023-04-23T10:27:52.933Z,56.97
2023-04-23T10:33:29.091Z,57.61
2023-04-23T10:38:57.914Z,57.65
2023-04-23T10:44:44.902Z,57.82
2023-04-23T10:50:28.575Z,57.70
2023-04-23T10:55:49.450Z,57.18
2023-04-23T11:01:10.598Z,56.90
2023-04-23T11:06:50.290Z,56.87
2023-04-23T11:12:32.843Z,56.95
2023-04-23T11:17:53.905Z,57.11
2023-04-23T11:23:32.383Z,57.16
2023-04-23T11:28:55.054Z,56.78
2023-04-23T11:34:17.653Z,57.12
2023-04-23T11:39:41.382Z,57.07
2023-04-23T11:45:02.997Z,56.94
2023-04-23T11:50:26.736Z,58.36
2023-04-23T11:55:49.469Z,59.12
2023-04-23T12:01:12.672Z,59.12
2023-04-23T12:06:33.826Z,59.79
2023-04-23T12:11:58.597Z,60.27
2023-04-23T12:17:19.795Z,59.91
2023-04-23T12:22:41.049Z,60.08
2023-04-23T12:28:05.473Z,59.89
2023-04-23T12:33:30.274Z,60.28
2023-04-23T12:38:51.473Z,60.56
2023-04-23T12:44:12.819Z,61.04
2023-04-23T12:49:35.807Z,61.10
2023-04-23T12:54:58.703Z,60.64
2023-04-23T13:00:19.887Z,60.50
2023-04-23T13:05:41.837Z,60.65
2023-04-23T13:11:02.764Z,60.56
2023-04-23T13:16:27.493Z,60.42
2023-04-23T13:21:48.249Z,60.31
2023-04-23T13:27:11.213Z,59.95
2023-04-23T13:32:32.720Z,60.15
2023-04-23T13:37:53.674Z,60.18
2023-04-23T13:43:14.697Z,60.25
2023-04-23T13:48:35.368Z,59.88
2023-04-23T13:53:56.246Z,59.80
2023-04-23T13:59:19.448Z,60.21
2023-04-23T14:04:41.197Z,60.00
2023-04-23T14:10:02.347Z,59.31
2023-04-23T14:15:23.553Z,59.67
2023-04-23T14:20:44.876Z,58.86
2023-04-23T14:26:10.632Z,59.04
2023-04-23T14:31:31.898Z,58.92
2023-04-23T14:36:53.421Z,59.17
2023-04-23T14:42:14.089Z,59.14
2023-04-23T14:47:35.177Z,59.51
2023-04-23T14:52:56.175Z,59.00
2023-04-23T14:58:17.452Z,58.67
2023-04-23T15:03:38.673Z,58.51
2023-04-23T15:09:02.174Z,58.49
2023-04-23T15:14:32.044Z,58.86
2023-04-23T15:19:54.523Z,58.63
2023-04-23T15:25:16.648Z,59.42
2023-04-23T15:30:37.602Z,59.16
2023-04-23T15:35:59.913Z,59.14
2023-04-23T15:41:21.087Z,58.93
2023-04-23T15:46:41.963Z,58.69
2023-04-23T15:52:02.813Z,58.99
2023-04-23T15:57:23.805Z,59.34
2023-04-23T16:02:45.549Z,59.43
2023-04-23T16:08:06.414Z,58.98
2023-04-23T16:13:29.017Z,59.50
2023-04-23T16:18:50.131Z,59.28
2023-04-23T16:24:11.834Z,59.06
2023-04-23T16:29:32.928Z,59.21
2023-04-23T16:34:53.800Z,59.25
2023-04-23T16:40:15.956Z,59.31
2023-04-23T16:45:37.922Z,59.37
2023-04-23T16:50:59.916Z,59.54
2023-04-23T16:56:21.284Z,59.69
2023-04-23T17:01:42.307Z,59.72
2023-04-23T17:07:03.463Z,59.54
2023-04-23T17:12:24.410Z,59.66
2023-04-23T17:17:45.304Z,59.99
2023-04-23T17:23:06.154Z,59.89
2023-04-23T17:28:27.024Z,60.08
2023-04-23T17:33:49.664Z,60.44
2023-04-23T17:39:10.547Z,60.29
2023-04-23T17:44:31.419Z,60.69
2023-04-23T17:49:53.220Z,60.56
2023-04-23T17:55:17.302Z,60.71
2023-04-23T18:00:40.248Z,60.71
2023-04-23T18:06:01.596Z,60.90
2023-04-23T18:11:22.656Z,60.72
2023-04-23T18:16:43.569Z,60.88
2023-04-23T18:22:04.565Z,61.08
2023-04-23T18:27:25.620Z,60.71
2023-04-23T18:32:59.514Z,60.79
2023-04-23T18:38:46.791Z,60.71
2023-04-23T18:44:07.826Z,60.71
2023-04-23T18:49:43.919Z,60.80
2023-04-23T18:55:08.251Z,60.73
2023-04-23T19:00:29.901Z,60.55
2023-04-23T19:05:50.948Z,60.69
2023-04-23T19:11:12.187Z,60.63
2023-04-23T19:16:33.413Z,60.86
2023-04-23T19:21:54.775Z,60.76
2023-04-23T19:27:15.721Z,61.07
2023-04-23T19:32:36.718Z,61.00
2023-04-23T19:37:57.876Z,60.93
2023-04-23T19:43:20.063Z,61.27
2023-04-23T19:48:41.501Z,61.39
2023-04-23T19:54:05.351Z,61.56
2023-04-23T19:59:26.555Z,61.79
2023-04-23T20:04:47.503Z,62.39
2023-04-23T20:10:10.657Z,62.47
2023-04-23T20:15:32.584Z,62.62
2023-04-23T20:20:54.765Z,62.69
2023-04-23T20:26:16.111Z,63.03
2023-04-23T20:31:37.482Z,63.12
2023-04-23T20:37:02.582Z,63.15
2023-04-23T20:42:25.654Z,63.05
2023-04-23T20:47:47.428Z,63.55
2023-04-23T20:53:08.518Z,63.34
2023-04-23T20:58:29.815Z,63.32
2023-04-23T21:03:53.133Z,62.90
2023-04-23T21:09:14.588Z,63.41
2023-04-23T21:14:36.271Z,63.02
2023-04-23T21:19:57.393Z,62.93
2023-04-23T21:25:21.287Z,62.77
2023-04-23T21:30:49.445Z,62.79
2023-04-23T21:36:10.818Z,62.87
2023-04-23T21:41:32.002Z,63.09
2023-04-23T21:46:52.780Z,62.55
2023-04-23T21:52:14.500Z,62.94
2023-04-23T21:57:35.892Z,63.17
2023-04-23T22:02:57.255Z,63.43
2023-04-23T22:08:19.035Z,63.45
2023-04-23T22:13:40.566Z,63.24
2023-04-23T22:19:02.456Z,62.90
2023-04-23T22:24:23.824Z,62.35
2023-04-23T22:29:44.724Z,62.13
2023-04-23T22:35:07.343Z,62.53
2023-04-23T22:40:28.558Z,62.91
2023-04-23T22:45:49.277Z,62.97
2023-04-23T22:51:13.929Z,63.30
2023-04-23T22:56:34.896Z,62.82
2023-04-23T23:01:55.551Z,63.12
2023-04-23T23:07:16.502Z,63.01
2023-04-23T23:12:37.366Z,63.35
2023-04-23T23:17:58.333Z,63.06
2023-04-23T23:23:19.056Z,63.54
2023-04-23T23:28:39.808Z,63.48
2023-04-23T23:34:00.540Z,64.13
2023-04-23T23:39:21.309Z,64.84
2023-04-23T23:44:42.242Z,64.91
2023-04-23T23:50:03.612Z,65.00
2023-04-23T23:55:24.903Z,65.03
